createdAt,value
2022-12-11T00:00:00.223Z,65.4
2022-12-11T00:01:07.255Z,65.4
2022-12-11T00:02:00.386Z,65.4
2022-12-11T00:03:00.552Z,67.7
2022-12-11T00:04:00.245Z,67.7
2022-12-11T00:05:00.210Z,67.7
2022-12-11T00:06:04.499Z,67.7
2022-12-11T00:07:00.319Z,67.7
2022-12-11T00:08:00.315Z,69.1
2022-12-11T00:09:00.640Z,69.1
2022-12-11T00:10:00.601Z,69.1
2022-12-11T00:11:00.321Z,69.1
2022-12-11T00:12:00.404Z,69.1
2022-12-11T00:13:00.355Z,83.6
2022-12-11T00:14:00.241Z,83.6
2022-12-11T00:15:00.257Z,83.6
2022-12-11T00:16:00.437Z,83.6
2022-12-11T00:17:00.367Z,83.6
2022-12-11T00:18:00.227Z,68.7
2022-12-11T00:19:00.253Z,68.7
2022-12-11T00:20:00.235Z,68.7
2022-12-11T00:21:01.119Z,68.7
2022-12-11T00:22:00.242Z,68.7
2022-12-11T00:23:00.224Z,73.5
2022-12-11T00:24:00.239Z,73.5
2022-12-11T00:25:00.367Z,73.5
2022-12-11T00:26:00.257Z,73.5
2022-12-11T00:27:00.309Z,73.5
2022-12-11T00:28:00.250Z,66.1
2022-12-11T00:29:00.302Z,66.1
2022-12-11T00:30:00.331Z,66.1
2022-12-11T00:31:05.189Z,66.1
2022-12-11T00:32:00.402Z,66.1
2022-12-11T00:33:00.394Z,67.9
2022-12-11T00:34:01.007Z,67.9
2022-12-11T00:35:00.231Z,67.9
2022-12-11T00:36:00.368Z,67.9
2022-12-11T00:37:00.444Z,67.9
2022-12-11T00:38:00.215Z,70.0
2022-12-11T00:39:01.145Z,70.0
2022-12-11T00:40:00.286Z,70.0
2022-12-11T00:41:00.329Z,70.0
2022-12-11T00:42:00.208Z,70.0
2022-12-11T00:43:00.233Z,67.5
2022-12-11T00:44:00.224Z,67.5
2022-12-11T00:45:00.241Z,67.5
2022-12-11T00:46:01.169Z,67.5
2022-12-11T00:47:00.488Z,67.5
2022-12-11T00:48:00.209Z,66.7
2022-12-11T00:49:00.275Z,66.7
2022-12-11T00:50:00.234Z,66.7
2022-12-11T00:51:00.269Z,66.7
2022-12-11T00:52:00.226Z,62.8
2022-12-11T00:53:00.395Z,62.8
2022-12-11T00:54:00.225Z,62.8
2022-12-11T00:55:00.241Z,62.8
2022-12-11T00:56:00.238Z,62.8
2022-12-11T00:57:00.246Z,62.9
2022-12-11T00:58:00.261Z,62.9
2022-12-11T00:59:00.221Z,62.9
2022-12-11T01:00:00.214Z,62.9
2022-12-11T01:01:10.000Z,62.9
2022-12-11T01:02:00.234Z,70.5
2022-12-11T01:03:00.746Z,70.5
2022-12-11T01:04:00.311Z,70.5
2022-12-11T01:05:00.240Z,70.5
2022-12-11T01:06:00.615Z,70.5
2022-12-11T01:07:00.313Z,66.8
2022-12-11T01:08:00.429Z,66.8
2022-12-11T01:09:00.270Z,66.8
2022-12-11T01:10:00.256Z,66.8
2022-12-11T01:11:03.551Z,66.8
2022-12-11T01:12:00.242Z,68.2
2022-12-11T01:13:04.252Z,68.2
2022-12-11T01:14:00.257Z,68.2
2022-12-11T01:15:00.349Z,68.2
2022-12-11T01:16:05.904Z,68.2
2022-12-11T01:17:00.344Z,65.6
2022-12-11T01:18:00.215Z,65.6
2022-12-11T01:19:00.253Z,65.6
2022-12-11T01:20:00.229Z,65.6
2022-12-11T01:21:04.066Z,65.6
2022-12-11T01:22:00.247Z,62.7
2022-12-11T01:23:00.245Z,62.7
2022-12-11T01:24:00.218Z,62.7
2022-12-11T01:25:00.245Z,62.7
2022-12-11T01:26:06.382Z,62.7
2022-12-11T01:27:00.241Z,65.6
2022-12-11T01:28:00.243Z,65.6
2022-12-11T01:29:00.214Z,65.6
2022-12-11T01:30:00.213Z,65.6
2022-12-11T01:31:00.573Z,65.6
2022-12-11T01:32:00.228Z,62.0
2022-12-11T01:33:00.217Z,62.0
2022-12-11T01:34:00.193Z,62.0
2022-12-11T01:35:03.185Z,62.0
2022-12-11T01:36:00.199Z,62.0
2022-12-11T01:37:00.258Z,65.0
2022-12-11T01:38:00.244Z,65.0
2022-12-11T01:39:00.233Z,65.0
2022-12-11T01:40:00.925Z,65.0
2022-12-11T01:41:00.258Z,65.0
2022-12-11T01:42:00.573Z,61.7
2022-12-11T01:43:00.228Z,61.7
2022-12-11T01:44:04.702Z,61.7
2022-12-11T01:45:11.413Z,61.7
2022-12-11T01:46:00.537Z,61.7
2022-12-11T01:47:00.585Z,62.4
2022-12-11T01:48:07.547Z,62.4
2022-12-11T01:49:02.515Z,62.4
2022-12-11T01:50:00.206Z,62.4
2022-12-11T01:51:03.746Z,62.4
2022-12-11T01:52:07.263Z,63.2
2022-12-11T01:53:01.465Z,63.2
2022-12-11T01:54:06.728Z,63.2
2022-12-11T01:55:00.329Z,63.2
2022-12-11T01:56:01.933Z,63.2
2022-12-11T01:57:05.470Z,60.0
2022-12-11T01:58:01.410Z,60.0
2022-12-11T01:59:03.705Z,60.0
2022-12-11T02:00:00.225Z,60.0
2022-12-11T02:01:01.552Z,60.0
2022-12-11T02:02:06.808Z,57.8
2022-12-11T02:03:00.694Z,57.8
2022-12-11T02:04:00.748Z,57.8
2022-12-11T02:05:03.012Z,57.8
2022-12-11T02:06:01.279Z,57.8
2022-12-11T02:07:00.181Z,58.1
2022-12-11T02:08:02.512Z,58.1
2022-12-11T02:09:00.913Z,58.1
2022-12-11T02:10:00.279Z,58.1
2022-12-11T02:11:09.406Z,58.1
2022-12-11T02:12:10.070Z,60.8
2022-12-11T02:13:06.572Z,60.8
2022-12-11T02:14:11.933Z,60.8
2022-12-11T02:15:14.348Z,60.8
2022-12-11T02:16:13.051Z,60.8
2022-12-11T02:17:09.396Z,56.8
2022-12-11T02:18:06.612Z,56.8
2022-12-11T02:19:14.125Z,56.8
2022-12-11T02:20:15.313Z,56.8
2022-12-11T02:21:04.458Z,56.8
2022-12-11T02:22:06.234Z,57.5
2022-12-11T02:23:11.137Z,57.5
2022-12-11T02:24:20.059Z,57.5
2022-12-11T02:25:14.549Z,57.5
2022-12-11T02:26:20.081Z,57.5
2022-12-11T02:27:10.146Z,55.2
2022-12-11T02:28:13.366Z,55.2
2022-12-11T02:29:02.914Z,55.2
2022-12-11T02:30:05.640Z,55.2
2022-12-11T02:31:04.708Z,55.2
2022-12-11T02:32:04.920Z,54.4
2022-12-11T02:33:00.500Z,54.4
2022-12-11T02:34:03.962Z,54.4
2022-12-11T02:35:10.505Z,54.4
2022-12-11T02:36:03.669Z,54.4
2022-12-11T02:37:06.730Z,51.4
2022-12-11T02:38:04.977Z,51.4
2022-12-11T02:39:03.031Z,51.4
2022-12-11T02:40:04.456Z,51.4
2022-12-11T02:41:03.189Z,51.4
2022-12-11T02:42:01.259Z,51.3
2022-12-11T02:43:03.464Z,51.3
2022-12-11T02:44:02.102Z,51.3
2022-12-11T02:45:01.940Z,51.3
2022-12-11T02:46:05.100Z,51.3
2022-12-11T02:47:03.276Z,49.8
2022-12-11T02:48:02.818Z,49.8
2022-12-11T02:49:04.684Z,49.8
2022-12-11T02:50:02.149Z,49.8
2022-12-11T02:51:02.902Z,49.8
2022-12-11T02:52:02.939Z,50.5
2022-12-11T02:53:03.198Z,50.5
2022-12-11T02:54:01.772Z,50.5
2022-12-11T02:55:02.750Z,50.5
2022-12-11T02:56:07.518Z,50.5
2022-12-11T02:57:07.130Z,52.5
2022-12-11T02:58:11.771Z,52.5
2022-12-11T02:59:07.482Z,52.5
2022-12-11T03:00:00.693Z,52.5
2022-12-11T03:01:00.472Z,52.5
2022-12-11T03:02:01.026Z,50.0
2022-12-11T03:03:01.121Z,50.0
2022-12-11T03:04:00.419Z,50.0
2022-12-11T03:05:00.288Z,50.0
2022-12-11T03:06:00.209Z,50.0
2022-12-11T03:07:05.378Z,52.7
2022-12-11T03:08:00.987Z,52.7
2022-12-11T03:09:00.224Z,52.7
2022-12-11T03:10:00.308Z,52.7
2022-12-11T03:11:00.227Z,52.7
2022-12-11T03:12:00.195Z,50.1
2022-12-11T03:13:01.706Z,50.1
2022-12-11T03:14:01.746Z,50.1
2022-12-11T03:15:04.048Z,50.1
2022-12-11T03:16:10.773Z,50.1
2022-12-11T03:17:12.984Z,55.8
2022-12-11T03:18:08.059Z,55.8
2022-12-11T03:19:08.352Z,55.8
2022-12-11T03:20:10.133Z,55.8
2022-12-11T03:21:08.882Z,55.8
2022-12-11T03:22:09.276Z,51.7
2022-12-11T03:23:11.167Z,51.7
2022-12-11T03:24:09.013Z,51.7
2022-12-11T03:25:06.264Z,51.7
2022-12-11T03:26:02.275Z,51.7
2022-12-11T03:27:11.237Z,53.4
2022-12-11T03:28:11.605Z,53.4
2022-12-11T03:29:07.022Z,53.4
2022-12-11T03:30:06.745Z,53.4
2022-12-11T03:31:06.003Z,53.4
2022-12-11T03:32:08.127Z,55.1
2022-12-11T03:33:04.319Z,55.1
2022-12-11T03:34:06.290Z,55.1
2022-12-11T03:35:15.869Z,55.1
2022-12-11T03:36:04.899Z,55.1
2022-12-11T03:37:03.013Z,54.3
2022-12-11T03:38:05.185Z,54.3
2022-12-11T03:39:08.494Z,54.3
2022-12-11T03:40:06.670Z,54.3
2022-12-11T03:41:03.139Z,54.3
2022-12-11T03:42:04.742Z,54.1
2022-12-11T03:43:02.101Z,54.1
2022-12-11T03:44:00.798Z,54.1
2022-12-11T03:45:02.380Z,54.1
2022-12-11T03:46:00.474Z,54.1
2022-12-11T03:47:05.374Z,54.7
2022-12-11T03:48:01.722Z,54.7
2022-12-11T03:49:06.742Z,54.7
2022-12-11T03:50:03.012Z,54.7
2022-12-11T03:51:03.953Z,54.7
2022-12-11T03:52:03.402Z,54.1
2022-12-11T03:53:02.301Z,54.1
2022-12-11T03:54:01.327Z,54.1
2022-12-11T03:55:03.513Z,54.1
2022-12-11T03:56:02.795Z,54.1
2022-12-11T03:57:02.968Z,57.4
2022-12-11T03:58:00.258Z,57.4
2022-12-11T03:59:00.440Z,57.4
2022-12-11T04:00:00.239Z,57.4
2022-12-11T04:01:00.412Z,57.4
2022-12-11T04:02:00.311Z,54.1
2022-12-11T04:03:00.222Z,54.1
2022-12-11T04:04:00.330Z,54.1
2022-12-11T04:05:00.300Z,54.1
2022-12-11T04:06:00.269Z,54.1
2022-12-11T04:07:00.244Z,51.8
2022-12-11T04:08:00.397Z,51.8
2022-12-11T04:09:00.224Z,51.8
2022-12-11T04:10:00.469Z,51.8
2022-12-11T04:11:03.010Z,51.8
2022-12-11T04:12:00.298Z,58.2
2022-12-11T04:13:00.244Z,58.2
2022-12-11T04:14:05.584Z,58.2
2022-12-11T04:15:00.247Z,58.2
2022-12-11T04:16:00.303Z,58.2
2022-12-11T04:17:00.245Z,54.2
2022-12-11T04:18:00.251Z,54.2
2022-12-11T04:19:00.255Z,54.2
2022-12-11T04:20:00.246Z,54.2
2022-12-11T04:21:00.209Z,54.2
2022-12-11T04:22:00.281Z,53.9
2022-12-11T04:23:02.717Z,53.9
2022-12-11T04:24:00.273Z,53.9
2022-12-11T04:25:00.850Z,53.9
2022-12-11T04:26:05.662Z,53.9
2022-12-11T04:27:00.319Z,53.6
2022-12-11T04:28:00.265Z,53.6
2022-12-11T04:29:00.262Z,53.6
2022-12-11T04:30:00.313Z,53.6
2022-12-11T04:31:00.464Z,53.6
2022-12-11T04:32:00.297Z,51.0
2022-12-11T04:33:00.885Z,51.0
2022-12-11T04:34:00.305Z,51.0
2022-12-11T04:35:00.441Z,51.0
2022-12-11T04:36:00.452Z,51.0
2022-12-11T04:37:00.267Z,54.8
2022-12-11T04:38:00.253Z,54.8
2022-12-11T04:39:00.439Z,54.8
2022-12-11T04:40:00.252Z,54.8
2022-12-11T04:41:06.826Z,54.8
2022-12-11T04:42:00.239Z,53.7
2022-12-11T04:43:00.305Z,53.7
2022-12-11T04:44:00.530Z,53.7
2022-12-11T04:45:00.276Z,53.7
2022-12-11T04:46:07.506Z,53.7
2022-12-11T04:47:00.241Z,52.5
2022-12-11T04:48:00.281Z,52.5
2022-12-11T04:49:00.333Z,52.5
2022-12-11T04:50:00.644Z,52.5
2022-12-11T04:51:00.364Z,52.5
2022-12-11T04:52:00.427Z,49.5
2022-12-11T04:53:00.219Z,49.5
2022-12-11T04:54:00.297Z,49.5
2022-12-11T04:55:00.245Z,49.5
2022-12-11T04:56:00.574Z,49.5
2022-12-11T04:57:00.232Z,50.7
2022-12-11T04:58:00.244Z,50.7
2022-12-11T04:59:00.236Z,50.7
2022-12-11T05:00:00.287Z,50.7
2022-12-11T05:01:05.606Z,50.7
2022-12-11T05:02:00.300Z,50.2
2022-12-11T05:03:00.310Z,50.2
2022-12-11T05:04:00.243Z,50.2
2022-12-11T05:05:00.304Z,50.2
2022-12-11T05:06:00.393Z,50.2
2022-12-11T05:07:00.938Z,48.1
2022-12-11T05:08:00.321Z,48.1
2022-12-11T05:09:00.204Z,48.1
2022-12-11T05:10:00.597Z,48.1
2022-12-11T05:11:04.467Z,48.1
2022-12-11T05:12:00.284Z,49.7
2022-12-11T05:13:00.254Z,49.7
2022-12-11T05:14:00.219Z,49.7
2022-12-11T05:15:00.205Z,49.7
2022-12-11T05:16:03.415Z,49.7
2022-12-11T05:17:00.205Z,47.3
2022-12-11T05:18:00.234Z,47.3
2022-12-11T05:19:00.250Z,47.3
2022-12-11T05:20:00.287Z,47.3
2022-12-11T05:21:04.289Z,45.2
2022-12-11T05:22:00.247Z,45.2
2022-12-11T05:23:00.275Z,45.2
2022-12-11T05:24:00.284Z,45.2
2022-12-11T05:25:00.203Z,45.2
2022-12-11T05:26:04.485Z,40.2
2022-12-11T05:27:00.229Z,40.2
2022-12-11T05:28:00.230Z,40.2
2022-12-11T05:29:00.194Z,40.2
2022-12-11T05:30:00.216Z,40.2
2022-12-11T05:31:04.594Z,43.9
2022-12-11T05:32:00.301Z,43.9
2022-12-11T05:33:00.240Z,43.9
2022-12-11T05:34:00.256Z,43.9
2022-12-11T05:35:00.197Z,43.9
2022-12-11T05:36:00.420Z,40.9
2022-12-11T05:37:00.452Z,40.9
2022-12-11T05:38:00.188Z,40.9
2022-12-11T05:39:00.749Z,40.9
2022-12-11T05:40:00.356Z,40.9
2022-12-11T05:41:03.269Z,38.0
2022-12-11T05:42:00.172Z,38.0
2022-12-11T05:43:00.200Z,38.0
2022-12-11T05:44:00.305Z,38.0
2022-12-11T05:45:00.173Z,38.0
2022-12-11T05:46:07.438Z,43.5
2022-12-11T05:47:00.239Z,43.5
2022-12-11T05:48:00.302Z,43.5
2022-12-11T05:49:01.279Z,43.5
2022-12-11T05:50:00.179Z,43.5
2022-12-11T05:51:01.425Z,41.5
2022-12-11T05:52:00.217Z,41.5
2022-12-11T05:53:00.187Z,41.5
2022-12-11T05:54:01.077Z,41.5
2022-12-11T05:55:00.200Z,41.5
2022-12-11T05:56:02.339Z,39.8
2022-12-11T05:57:00.178Z,39.8
2022-12-11T05:58:00.243Z,39.8
2022-12-11T05:59:01.462Z,39.8
2022-12-11T06:00:00.226Z,39.8
2022-12-11T06:01:00.448Z,40.4
2022-12-11T06:02:00.274Z,40.4
2022-12-11T06:03:00.296Z,40.4
2022-12-11T06:04:01.234Z,40.4
2022-12-11T06:05:00.593Z,40.4
2022-12-11T06:06:01.033Z,38.3
2022-12-11T06:07:00.224Z,38.3
2022-12-11T06:08:00.285Z,38.3
2022-12-11T06:09:00.889Z,38.3
2022-12-11T06:10:00.243Z,38.3
2022-12-11T06:11:01.749Z,36.1
2022-12-11T06:12:00.269Z,36.1
2022-12-11T06:13:00.256Z,36.1
2022-12-11T06:14:02.039Z,36.1
2022-12-11T06:15:00.212Z,36.1
2022-12-11T06:16:01.409Z,36.4
2022-12-11T06:17:00.209Z,36.4
2022-12-11T06:18:00.237Z,36.4
2022-12-11T06:19:00.274Z,36.4
2022-12-11T06:20:00.224Z,36.4
2022-12-11T06:21:00.210Z,36.8
2022-12-11T06:22:00.248Z,36.8
2022-12-11T06:23:01.022Z,36.8
2022-12-11T06:24:02.347Z,36.8
2022-12-11T06:25:00.227Z,36.8
2022-12-11T06:26:02.269Z,38.9
2022-12-11T06:27:00.224Z,38.9
2022-12-11T06:28:00.289Z,38.9
2022-12-11T06:29:00.215Z,38.9
2022-12-11T06:30:00.541Z,38.9
2022-12-11T06:31:00.421Z,36.3
2022-12-11T06:32:00.306Z,36.3
2022-12-11T06:33:00.232Z,36.3
2022-12-11T06:34:00.263Z,36.3
2022-12-11T06:35:00.220Z,36.3
2022-12-11T06:36:01.828Z,34.8
2022-12-11T06:37:00.232Z,34.8
2022-12-11T06:38:00.213Z,34.8
2022-12-11T06:39:00.209Z,34.8
2022-12-11T06:40:00.392Z,34.8
2022-12-11T06:41:01.939Z,35.4
2022-12-11T06:42:00.203Z,35.4
2022-12-11T06:43:00.251Z,35.4
2022-12-11T06:44:00.237Z,35.4
2022-12-11T06:45:00.642Z,35.4
2022-12-11T06:46:12.524Z,34.6
2022-12-11T06:47:00.206Z,34.6
2022-12-11T06:48:00.201Z,34.6
2022-12-11T06:49:00.241Z,34.6
2022-12-11T06:50:00.253Z,34.6
2022-12-11T06:51:03.998Z,37.4
2022-12-11T06:52:00.220Z,37.4
2022-12-11T06:53:00.228Z,37.4
2022-12-11T06:54:00.304Z,37.4
2022-12-11T06:55:00.226Z,37.4
2022-12-11T06:56:05.130Z,34.4
2022-12-11T06:57:00.223Z,34.4
2022-12-11T06:58:00.347Z,34.4
2022-12-11T06:59:05.706Z,34.4
2022-12-11T07:00:00.220Z,34.4
2022-12-11T07:01:00.623Z,35.7
2022-12-11T07:02:00.289Z,35.7
2022-12-11T07:03:00.255Z,35.7
2022-12-11T07:04:00.241Z,35.7
2022-12-11T07:05:00.312Z,35.7
2022-12-11T07:06:01.284Z,33.4
2022-12-11T07:07:00.201Z,33.4
2022-12-11T07:08:00.331Z,33.4
2022-12-11T07:09:02.475Z,33.4
2022-12-11T07:10:07.317Z,33.4
2022-12-11T07:11:02.660Z,35.2
2022-12-11T07:12:00.292Z,35.2
2022-12-11T07:13:00.200Z,35.2
2022-12-11T07:14:00.318Z,35.2
2022-12-11T07:15:00.200Z,35.2
2022-12-11T07:16:01.468Z,37.5
2022-12-11T07:17:00.388Z,37.5
2022-12-11T07:18:00.327Z,37.5
2022-12-11T07:19:00.183Z,37.5
2022-12-11T07:20:00.355Z,37.5
2022-12-11T07:21:00.206Z,36.3
2022-12-11T07:22:00.218Z,36.3
2022-12-11T07:23:00.182Z,36.3
2022-12-11T07:24:00.239Z,36.3
2022-12-11T07:25:00.269Z,36.3
2022-12-11T07:26:10.476Z,35.4
2022-12-11T07:27:00.177Z,35.4
2022-12-11T07:28:00.177Z,35.4
2022-12-11T07:29:00.328Z,35.4
2022-12-11T07:30:00.203Z,35.4
2022-12-11T07:31:10.646Z,35.1
2022-12-11T07:32:00.259Z,35.1
2022-12-11T07:33:00.205Z,35.1
2022-12-11T07:34:04.048Z,35.1
2022-12-11T07:35:00.202Z,35.1
2022-12-11T07:36:05.564Z,34.0
2022-12-11T07:37:00.466Z,34.0
2022-12-11T07:38:00.454Z,34.0
2022-12-11T07:39:00.324Z,34.0
2022-12-11T07:40:00.164Z,34.0
2022-12-11T07:41:01.705Z,36.7
2022-12-11T07:42:00.149Z,36.7
2022-12-11T07:43:00.166Z,36.7
2022-12-11T07:44:00.523Z,36.7
2022-12-11T07:45:00.160Z,36.7
2022-12-11T07:46:02.264Z,33.5
2022-12-11T07:47:00.247Z,33.5
2022-12-11T07:48:00.152Z,33.5
2022-12-11T07:49:00.803Z,33.5
2022-12-11T07:50:00.152Z,33.5
2022-12-11T07:51:08.802Z,36.6
2022-12-11T07:52:00.144Z,36.6
2022-12-11T07:53:00.136Z,36.6
2022-12-11T07:54:03.878Z,36.6
2022-12-11T07:55:00.236Z,36.6
2022-12-11T07:56:00.296Z,32.4
2022-12-11T07:57:00.118Z,32.4
2022-12-11T07:58:00.148Z,32.4
2022-12-11T07:59:01.494Z,32.4
2022-12-11T08:00:00.174Z,32.4
2022-12-11T08:01:00.224Z,35.8
2022-12-11T08:02:02.169Z,35.8
2022-12-11T08:03:00.108Z,35.8
2022-12-11T08:04:00.190Z,35.8
2022-12-11T08:05:00.140Z,35.8
2022-12-11T08:06:00.157Z,34.7
2022-12-11T08:07:00.122Z,34.7
2022-12-11T08:08:00.205Z,34.7
2022-12-11T08:09:03.321Z,34.7
2022-12-11T08:10:00.187Z,34.7
2022-12-11T08:11:01.755Z,33.2
2022-12-11T08:12:00.135Z,33.2
2022-12-11T08:13:00.176Z,33.2
2022-12-11T08:14:00.299Z,33.2
2022-12-11T08:15:00.186Z,33.2
2022-12-11T08:16:04.741Z,33.6
2022-12-11T08:17:00.318Z,33.6
2022-12-11T08:18:00.264Z,33.6
2022-12-11T08:19:00.203Z,33.6
2022-12-11T08:20:00.206Z,33.6
2022-12-11T08:21:04.067Z,32.9
2022-12-11T08:22:00.251Z,32.9
2022-12-11T08:23:00.234Z,32.9
2022-12-11T08:24:00.201Z,32.9
2022-12-11T08:25:00.241Z,32.9
2022-12-11T08:26:04.908Z,33.8
2022-12-11T08:27:00.222Z,33.8
2022-12-11T08:28:00.263Z,33.8
2022-12-11T08:29:00.828Z,33.8
2022-12-11T08:30:00.308Z,33.8
2022-12-11T08:31:04.221Z,32.4
2022-12-11T08:32:00.260Z,32.4
2022-12-11T08:33:00.462Z,32.4
2022-12-11T08:34:00.313Z,32.4
2022-12-11T08:35:00.397Z,32.4
2022-12-11T08:36:03.511Z,30.5
2022-12-11T08:37:00.488Z,30.5
2022-12-11T08:38:00.299Z,30.5
2022-12-11T08:39:00.397Z,30.5
2022-12-11T08:40:00.356Z,30.5
2022-12-11T08:41:11.254Z,27.5
2022-12-11T08:42:00.285Z,27.5
2022-12-11T08:43:00.306Z,27.5
2022-12-11T08:44:00.493Z,27.5
2022-12-11T08:45:00.429Z,27.5
2022-12-11T08:46:00.410Z,30.7
2022-12-11T08:47:00.346Z,30.7
2022-12-11T08:48:00.559Z,30.7
2022-12-11T08:49:00.344Z,30.7
2022-12-11T08:50:00.509Z,30.7
2022-12-11T08:51:01.933Z,29.4
2022-12-11T08:52:02.735Z,29.4
2022-12-11T08:53:00.369Z,29.4
2022-12-11T08:54:00.512Z,29.4
2022-12-11T08:55:00.475Z,29.4
2022-12-11T08:56:01.293Z,30.7
2022-12-11T08:57:00.227Z,30.7
2022-12-11T08:58:00.235Z,30.7
2022-12-11T08:59:00.553Z,30.7
2022-12-11T09:00:00.249Z,30.7
2022-12-11T09:01:05.976Z,29.3
2022-12-11T09:02:00.436Z,29.3
2022-12-11T09:03:00.370Z,29.3
2022-12-11T09:04:00.254Z,29.3
2022-12-11T09:05:00.367Z,29.3
2022-12-11T09:06:03.138Z,26.2
2022-12-11T09:07:00.240Z,26.2
2022-12-11T09:08:00.267Z,26.2
2022-12-11T09:09:01.181Z,26.2
2022-12-11T09:10:00.558Z,26.2
2022-12-11T09:11:02.779Z,32.0
2022-12-11T09:12:00.435Z,32.0
2022-12-11T09:13:00.252Z,32.0
2022-12-11T09:14:06.796Z,32.0
2022-12-11T09:15:00.279Z,32.0
2022-12-11T09:16:03.362Z,28.6
2022-12-11T09:17:00.238Z,28.6
2022-12-11T09:18:00.382Z,28.6
2022-12-11T09:19:00.227Z,28.6
2022-12-11T09:20:00.653Z,28.6
2022-12-11T09:21:02.555Z,27.6
2022-12-11T09:22:00.607Z,27.6
2022-12-11T09:23:00.508Z,27.6
2022-12-11T09:24:00.500Z,27.6
2022-12-11T09:25:00.304Z,27.6
2022-12-11T09:26:03.150Z,27.1
2022-12-11T09:27:00.282Z,27.1
2022-12-11T09:28:00.231Z,27.1
2022-12-11T09:29:03.581Z,27.1
2022-12-11T09:30:00.335Z,27.1
2022-12-11T09:31:00.404Z,25.8
2022-12-11T09:32:00.289Z,25.8
2022-12-11T09:33:00.319Z,25.8
2022-12-11T09:34:03.038Z,25.8
2022-12-11T09:35:00.300Z,25.8
2022-12-11T09:36:01.970Z,24.5
2022-12-11T09:37:00.888Z,24.5
2022-12-11T09:38:00.235Z,24.5
2022-12-11T09:39:02.526Z,24.5
2022-12-11T09:40:07.061Z,24.5
2022-12-11T09:41:00.295Z,26.4
2022-12-11T09:42:09.806Z,26.4
2022-12-11T09:43:08.121Z,26.4
2022-12-11T09:44:10.907Z,26.4
2022-12-11T09:45:02.789Z,26.4
2022-12-11T09:46:03.909Z,29.2
2022-12-11T09:47:00.700Z,29.2
2022-12-11T09:48:01.352Z,29.2
2022-12-11T09:49:02.756Z,29.2
2022-12-11T09:50:10.236Z,25.6
2022-12-11T09:51:05.444Z,25.6
2022-12-11T09:52:10.311Z,25.6
2022-12-11T09:53:12.315Z,25.6
2022-12-11T09:54:03.384Z,25.6
2022-12-11T09:55:08.971Z,24.8
2022-12-11T09:56:14.602Z,24.8
2022-12-11T09:57:20.157Z,24.8
2022-12-11T09:58:17.539Z,24.8
2022-12-11T09:59:16.675Z,24.8
2022-12-11T10:00:13.844Z,26.7
2022-12-11T10:01:09.170Z,26.7
2022-12-11T10:02:20.202Z,26.7
2022-12-11T10:03:20.159Z,26.7
2022-12-11T10:04:11.169Z,26.7
2022-12-11T10:05:10.433Z,26.8
2022-12-11T10:06:13.063Z,26.8
2022-12-11T10:07:12.784Z,26.8
2022-12-11T10:08:07.346Z,26.8
2022-12-11T10:09:10.166Z,26.8
2022-12-11T10:10:06.593Z,27.4
2022-12-11T10:11:11.173Z,27.4
2022-12-11T10:12:11.307Z,27.4
2022-12-11T10:13:12.411Z,27.4
2022-12-11T10:14:20.127Z,27.4
2022-12-11T10:15:10.620Z,27.3
2022-12-11T10:19:00.409Z,27.3
2022-12-11T10:20:16.768Z,23.2
2022-12-11T10:21:01.350Z,23.2
2022-12-11T10:22:01.194Z,23.2
2022-12-11T10:23:02.150Z,23.2
2022-12-11T10:24:03.611Z,23.2
2022-12-11T10:25:12.316Z,21.6
2022-12-11T10:26:14.939Z,21.6
2022-12-11T10:27:15.956Z,21.6
2022-12-11T10:28:10.910Z,21.6
2022-12-11T10:29:01.392Z,21.6
2022-12-11T10:30:12.052Z,23.4
2022-12-11T10:31:18.814Z,23.4
2022-12-11T10:32:01.468Z,23.4
2022-12-11T10:33:10.711Z,23.4
2022-12-11T10:34:02.604Z,23.4
2022-12-11T10:35:03.577Z,22.7
2022-12-11T10:36:00.387Z,22.7
2022-12-11T10:37:01.205Z,22.7
2022-12-11T10:38:10.355Z,22.7
2022-12-11T10:39:00.668Z,22.7
2022-12-11T10:40:00.241Z,21.2
2022-12-11T10:41:03.973Z,21.2
2022-12-11T10:42:14.780Z,21.2
2022-12-11T10:43:00.437Z,21.2
2022-12-11T10:44:00.335Z,21.2
2022-12-11T10:45:02.487Z,20.7
2022-12-11T10:46:00.472Z,20.7
2022-12-11T10:47:01.221Z,20.7
2022-12-11T10:48:02.510Z,20.7
2022-12-11T10:49:00.699Z,20.7
2022-12-11T10:50:01.780Z,21.9
2022-12-11T10:51:04.393Z,21.9
2022-12-11T10:52:01.145Z,21.9
2022-12-11T10:53:00.574Z,21.9
2022-12-11T10:54:07.451Z,21.9
2022-12-11T10:55:05.414Z,21.4
2022-12-11T10:56:01.222Z,21.4
2022-12-11T10:57:02.270Z,21.4
2022-12-11T10:58:03.033Z,21.4
2022-12-11T10:59:00.559Z,21.4
2022-12-11T11:00:01.599Z,21.1
2022-12-11T11:01:12.940Z,21.1
2022-12-11T11:02:01.519Z,21.1
2022-12-11T11:03:01.192Z,21.1
2022-12-11T11:04:05.368Z,21.1
2022-12-11T11:05:14.401Z,20.8
2022-12-11T11:06:02.474Z,20.8
2022-12-11T11:07:11.225Z,20.8
2022-12-11T11:08:13.581Z,20.8
2022-12-11T11:09:00.994Z,20.8
2022-12-11T11:10:10.355Z,19.8
2022-12-11T11:11:00.447Z,19.8
2022-12-11T11:12:07.435Z,19.8
2022-12-11T11:13:01.378Z,19.8
2022-12-11T11:14:05.867Z,19.8
2022-12-11T11:20:11.504Z,19.3
2022-12-11T11:21:00.848Z,19.3
2022-12-11T11:22:08.261Z,19.3
2022-12-11T11:23:03.193Z,19.3
2022-12-11T11:24:00.261Z,19.3
2022-12-11T11:25:01.064Z,19.4
2022-12-11T11:26:05.249Z,19.4
2022-12-11T11:27:13.906Z,19.4
2022-12-11T11:28:03.989Z,19.4
2022-12-11T11:29:00.258Z,19.4
2022-12-11T11:30:04.128Z,20.4
2022-12-11T11:31:03.565Z,20.4
2022-12-11T11:32:12.520Z,20.4
2022-12-11T11:33:11.207Z,20.4
2022-12-11T11:34:05.566Z,20.4
2022-12-11T11:35:10.462Z,20.2
2022-12-11T11:36:03.456Z,20.2
2022-12-11T11:37:00.233Z,20.2
2022-12-11T11:38:18.717Z,20.2
2022-12-11T11:39:13.470Z,20.2
2022-12-11T11:40:12.562Z,19.5
2022-12-11T11:41:15.291Z,19.5
2022-12-11T11:42:16.172Z,19.5
2022-12-11T11:43:15.362Z,19.5
2022-12-11T11:44:05.363Z,19.5
2022-12-11T11:45:09.719Z,19.1
2022-12-11T11:46:13.565Z,19.1
2022-12-11T11:47:13.660Z,19.1
2022-12-11T11:48:12.399Z,19.1
2022-12-11T11:49:20.145Z,19.1
2022-12-11T11:50:06.954Z,18.6
2022-12-11T11:51:11.775Z,18.6
2022-12-11T11:52:10.170Z,18.6
2022-12-11T11:53:04.916Z,18.6
2022-12-11T11:54:07.564Z,18.6
2022-12-11T11:55:11.328Z,20.2
2022-12-11T11:56:17.651Z,20.2
2022-12-11T11:57:14.416Z,20.2
2022-12-11T11:58:07.916Z,20.2
2022-12-11T11:59:11.156Z,20.2
2022-12-11T12:00:05.850Z,20.0
2022-12-11T12:01:00.240Z,20.0
2022-12-11T12:02:00.237Z,20.0
2022-12-11T12:03:07.500Z,20.0
2022-12-11T12:04:03.040Z,20.0
2022-12-11T12:05:01.622Z,21.6
2022-12-11T12:06:13.426Z,21.6
2022-12-11T12:07:12.564Z,21.6
2022-12-11T12:08:08.529Z,21.6
2022-12-11T12:09:20.172Z,21.6
2022-12-11T12:10:11.130Z,22.9
2022-12-11T12:11:01.284Z,22.9
2022-12-11T12:12:26.397Z,22.9
2022-12-11T12:13:10.855Z,22.9
2022-12-11T12:14:43.743Z,22.9
2022-12-11T12:15:14.549Z,18.3
2022-12-11T12:16:01.398Z,18.3
2022-12-11T12:17:07.761Z,18.3
2022-12-11T12:18:09.817Z,18.3
2022-12-11T12:19:08.342Z,18.3
2022-12-11T12:20:11.171Z,19.2
2022-12-11T12:21:12.541Z,19.2
2022-12-11T12:22:18.565Z,19.2
2022-12-11T12:23:10.470Z,19.2
2022-12-11T12:24:06.994Z,19.2
2022-12-11T12:25:20.117Z,20.4
2022-12-11T12:26:10.104Z,20.4
2022-12-11T12:27:29.447Z,20.4
2022-12-11T12:28:20.135Z,20.4
2022-12-11T12:29:19.657Z,20.4
2022-12-11T12:30:08.234Z,19.1
2022-12-11T12:31:04.571Z,19.1
2022-12-11T12:32:08.206Z,19.1
2022-12-11T12:33:13.977Z,19.1
2022-12-11T12:34:13.470Z,19.1
2022-12-11T12:35:20.129Z,21.0
2022-12-11T12:36:10.067Z,21.0
2022-12-11T12:37:06.976Z,21.0
2022-12-11T12:38:05.978Z,21.0
2022-12-11T12:39:06.928Z,21.0
2022-12-11T12:40:20.157Z,21.7
2022-12-11T12:41:08.664Z,21.7
2022-12-11T12:42:10.178Z,21.7
2022-12-11T12:43:14.917Z,21.7
2022-12-11T12:44:13.430Z,21.7
2022-12-11T12:45:10.113Z,18.1
2022-12-11T12:46:13.897Z,18.1
2022-12-11T12:47:08.032Z,18.1
2022-12-11T12:48:00.848Z,18.1
2022-12-11T12:49:01.380Z,18.1
2022-12-11T12:50:02.630Z,19.8
2022-12-11T12:51:02.406Z,19.8
2022-12-11T12:52:01.630Z,19.8
2022-12-11T12:53:00.552Z,19.8
2022-12-11T12:54:04.689Z,19.8
2022-12-11T12:55:15.723Z,20.5
2022-12-11T12:56:02.022Z,20.5
2022-12-11T12:57:02.572Z,20.5
2022-12-11T12:58:04.668Z,20.5
2022-12-11T12:59:00.201Z,20.5
2022-12-11T13:00:00.371Z,19.6
2022-12-11T13:01:11.241Z,19.6
2022-12-11T13:02:02.821Z,19.6
2022-12-11T13:03:12.284Z,19.6
2022-12-11T13:04:03.273Z,19.6
2022-12-11T13:05:14.824Z,19.9
2022-12-11T13:06:08.316Z,19.9
2022-12-11T13:07:11.853Z,19.9
2022-12-11T13:08:02.832Z,19.9
2022-12-11T13:09:13.916Z,19.9
2022-12-11T13:10:20.101Z,19.8
2022-12-11T13:11:05.101Z,19.8
2022-12-11T13:12:12.940Z,19.8
2022-12-11T13:13:02.182Z,19.8
2022-12-11T13:14:02.287Z,19.8
2022-12-11T13:15:00.310Z,19.3
2022-12-11T13:16:17.701Z,19.3
2022-12-11T13:17:16.122Z,19.3
2022-12-11T13:18:03.814Z,19.3
2022-12-11T13:19:00.721Z,19.3
2022-12-11T13:20:12.292Z,20.4
2022-12-11T13:21:02.055Z,20.4
2022-12-11T13:22:11.168Z,20.4
2022-12-11T13:23:16.793Z,20.4
2022-12-11T13:24:15.760Z,20.4
2022-12-11T13:25:11.544Z,19.7
2022-12-11T13:26:02.697Z,19.7